Terminal Aerodrome Forecast
Issued by NWS Cleveland, OH

Home | Current Version | Previous Version | Text Only | Print | Product List | Glossary Off
Versions: 1 2 3 4 5 6 7 8 9 10 11 12 13 14 15 16 17 18 19

000
FTUS41 KCLE 190531
TAFMFD
TAF
KMFD 190531Z 1906/2006 VRB03KT P6SM OVC100
      TEMPO 1910/1912 4SM BR
     FM191400 16005KT P6SM OVC050
      TEMPO 1916/1920 -SHRA
     FM200000 18005KT P6SM BKN035=

USA.gov is the U.S. government's official web portal to all federal, state and local government web resources and services.